createdAt,value
2022-11-29T00:01:12.052Z,5.77
2022-11-29T00:03:38.921Z,5.66
2022-11-29T00:06:08.426Z,5.76
2022-11-29T00:08:36.403Z,5.84
2022-11-29T00:11:08.152Z,5.81
2022-11-29T00:13:35.144Z,5.63
2022-11-29T00:16:05.812Z,5.75
2022-11-29T00:18:32.745Z,5.79
2022-11-29T00:20:59.785Z,5.80
2022-11-29T00:23:26.722Z,5.76
2022-11-29T00:25:53.682Z,5.75
2022-11-29T00:28:20.487Z,5.75
2022-11-29T00:30:47.477Z,5.73
2022-11-29T00:33:14.432Z,5.79
2022-11-29T00:35:41.357Z,5.87
2022-11-29T00:38:08.237Z,5.84
2022-11-29T00:40:35.159Z,5.65
2022-11-29T00:43:02.096Z,5.58
2022-11-29T00:45:28.933Z,5.78
2022-11-29T00:47:55.841Z,5.77
2022-11-29T00:50:22.693Z,5.77
2022-11-29T00:52:49.843Z,5.82
2022-11-29T00:55:16.720Z,5.93
2022-11-29T00:57:43.618Z,5.89
2022-11-29T01:00:10.960Z,5.92
2022-11-29T01:02:38.021Z,5.88
2022-11-29T01:05:05.141Z,5.97
2022-11-29T01:07:32.033Z,6.03
2022-11-29T01:09:58.856Z,6.00
2022-11-29T01:12:25.900Z,6.02
2022-11-29T01:14:52.738Z,5.93
2022-11-29T01:17:19.591Z,5.96
2022-11-29T01:19:50.623Z,5.93
2022-11-29T01:22:18.619Z,5.86
2022-11-29T01:24:45.692Z,5.83
2022-11-29T01:27:12.799Z,5.83
2022-11-29T01:29:39.639Z,5.95
2022-11-29T01:32:06.451Z,5.83
2022-11-29T01:34:33.404Z,5.85
2022-11-29T01:37:00.201Z,5.96
2022-11-29T01:39:27.025Z,6.04
2022-11-29T01:41:53.856Z,6.10
2022-11-29T01:44:20.928Z,6.17
2022-11-29T01:46:48.709Z,6.11
2022-11-29T01:49:21.370Z,6.17
2022-11-29T01:51:55.779Z,6.20
2022-11-29T01:54:22.991Z,6.00
2022-11-29T01:56:51.997Z,5.98
2022-11-29T01:59:25.153Z,5.92
2022-11-29T02:01:52.901Z,5.93
2022-11-29T02:04:20.342Z,5.96
2022-11-29T02:06:47.322Z,6.04
2022-11-29T02:09:23.324Z,6.15
2022-11-29T02:12:28.677Z,6.10
2022-11-29T02:15:32.792Z,6.05
2022-11-29T02:18:14.796Z,6.13
2022-11-29T02:20:41.603Z,6.15
2022-11-29T02:23:20.652Z,6.16
2022-11-29T02:26:09.274Z,6.24
2022-11-29T02:29:08.083Z,6.24
2022-11-29T02:31:57.870Z,6.16
2022-11-29T02:34:41.814Z,6.06
2022-11-29T02:37:42.884Z,5.96
2022-11-29T02:40:47.335Z,5.96
2022-11-29T02:43:19.536Z,6.03
2022-11-29T02:46:07.972Z,6.06
2022-11-29T02:48:46.698Z,5.94
2022-11-29T02:51:18.757Z,6.07
2022-11-29T02:53:53.659Z,6.12
2022-11-29T02:56:52.243Z,5.85
2022-11-29T02:59:41.753Z,5.86
2022-11-29T03:02:20.487Z,5.96
2022-11-29T03:04:53.204Z,5.99
2022-11-29T03:07:35.840Z,5.79
2022-11-29T03:10:09.459Z,5.83
2022-11-29T03:12:47.632Z,5.80
2022-11-29T03:15:21.688Z,5.67
2022-11-29T03:18:00.597Z,5.52
2022-11-29T03:21:03.853Z,5.63
2022-11-29T03:23:39.540Z,5.66
2022-11-29T03:26:12.072Z,5.68
2022-11-29T03:28:46.189Z,5.64
2022-11-29T03:31:27.297Z,5.72
2022-11-29T03:34:31.931Z,5.67
2022-11-29T03:37:08.537Z,5.73
2022-11-29T03:39:45.496Z,5.72
2022-11-29T03:42:24.544Z,5.65
2022-11-29T03:44:56.756Z,5.73
2022-11-29T03:47:30.345Z,5.72
2022-11-29T03:50:23.262Z,5.80
2022-11-29T03:52:54.707Z,5.81
2022-11-29T03:55:21.526Z,5.86
2022-11-29T03:58:10.374Z,5.91
2022-11-29T04:00:49.219Z,5.90
2022-11-29T04:03:25.672Z,6.00
2022-11-29T04:06:04.713Z,6.03
2022-11-29T04:08:57.735Z,6.00
2022-11-29T04:11:30.469Z,5.96
2022-11-29T04:14:44.130Z,5.89
2022-11-29T04:17:30.918Z,5.89
2022-11-29T04:20:15.121Z,6.01
2022-11-29T04:23:00.314Z,6.08
2022-11-29T04:26:01.421Z,6.02
2022-11-29T04:28:50.128Z,6.09
2022-11-29T04:31:37.285Z,6.09
2022-11-29T04:34:37.481Z,6.07
2022-11-29T04:37:31.242Z,6.11
2022-11-29T04:40:04.237Z,6.01
2022-11-29T04:43:12.359Z,6.02
2022-11-29T04:46:05.478Z,6.02
2022-11-29T04:48:55.532Z,6.02
2022-11-29T04:51:31.485Z,5.97
2022-11-29T04:54:26.442Z,6.01
2022-11-29T04:57:06.236Z,6.00
2022-11-29T04:59:42.783Z,6.01
2022-11-29T05:02:49.061Z,5.96
2022-11-29T05:05:19.076Z,6.01
2022-11-29T05:07:48.610Z,6.01
2022-11-29T05:10:43.126Z,6.06
2022-11-29T05:13:19.021Z,6.05
2022-11-29T05:16:02.730Z,6.06
2022-11-29T05:18:57.165Z,6.09
2022-11-29T05:21:44.057Z,6.13
2022-11-29T05:24:11.106Z,6.15
2022-11-29T05:27:01.715Z,6.27
2022-11-29T05:29:42.170Z,6.31
2022-11-29T05:32:24.756Z,6.28
2022-11-29T05:35:00.951Z,6.30
2022-11-29T05:37:48.004Z,6.27
2022-11-29T05:40:44.374Z,6.18
2022-11-29T05:43:11.204Z,6.25
2022-11-29T05:46:22.730Z,6.15
2022-11-29T05:49:01.587Z,6.08
2022-11-29T05:51:42.193Z,5.82
2022-11-29T05:54:30.450Z,6.00
2022-11-29T05:57:29.356Z,6.07
2022-11-29T05:59:59.218Z,6.13
2022-11-29T06:02:44.444Z,6.06
2022-11-29T06:05:49.887Z,6.39
2022-11-29T06:08:25.544Z,6.55
2022-11-29T06:11:01.735Z,6.38
2022-11-29T06:13:47.609Z,6.35
2022-11-29T06:16:42.495Z,6.31
2022-11-29T06:19:47.197Z,6.31
2022-11-29T06:22:32.205Z,6.19
2022-11-29T06:25:16.798Z,6.11
2022-11-29T06:28:12.060Z,6.02
2022-11-29T06:31:05.527Z,6.01
2022-11-29T06:33:50.987Z,6.02
2022-11-29T06:36:28.242Z,6.10
2022-11-29T06:38:55.709Z,6.03
2022-11-29T06:41:24.397Z,6.03
2022-11-29T06:43:51.660Z,6.18
2022-11-29T06:46:21.165Z,6.11
2022-11-29T06:49:02.246Z,6.14
2022-11-29T06:51:37.077Z,6.06
2022-11-29T06:54:03.968Z,6.22
2022-11-29T06:56:45.956Z,6.17
2022-11-29T06:59:12.726Z,6.13
2022-11-29T07:01:54.109Z,6.16
2022-11-29T07:04:45.493Z,6.17
2022-11-29T07:07:18.640Z,6.24
2022-11-29T07:09:47.666Z,6.32
2022-11-29T07:12:15.448Z,6.32
2022-11-29T07:14:42.853Z,6.42
2022-11-29T07:17:12.732Z,6.47
2022-11-29T07:19:42.599Z,6.49
2022-11-29T07:22:47.118Z,6.45
2022-11-29T07:25:41.648Z,6.55
2022-11-29T07:28:30.204Z,6.64
2022-11-29T07:31:21.356Z,6.73
2022-11-29T07:34:20.729Z,6.76
2022-11-29T07:37:10.941Z,6.75
2022-11-29T07:39:52.930Z,6.80
2022-11-29T07:42:38.340Z,6.74
2022-11-29T07:45:18.692Z,6.70
2022-11-29T07:47:46.406Z,6.63
2022-11-29T07:50:13.629Z,6.72
2022-11-29T07:52:40.579Z,6.62
2022-11-29T07:55:17.086Z,6.68
2022-11-29T07:57:45.485Z,6.74
2022-11-29T08:00:13.277Z,6.86
2022-11-29T08:02:40.562Z,6.83
2022-11-29T08:05:08.087Z,6.76
2022-11-29T08:07:36.780Z,6.82
2022-11-29T08:10:11.824Z,6.71
2022-11-29T08:12:44.481Z,6.63
2022-11-29T08:15:11.797Z,6.60
2022-11-29T08:17:39.358Z,6.62
2022-11-29T08:20:07.329Z,6.73
2022-11-29T08:22:34.279Z,6.84
2022-11-29T08:25:01.442Z,6.83
2022-11-29T08:27:28.843Z,6.92
2022-11-29T08:29:55.695Z,6.97
2022-11-29T08:32:22.560Z,6.93
2022-11-29T08:34:49.425Z,6.97
2022-11-29T08:37:16.336Z,6.94
2022-11-29T08:39:43.378Z,7.00
2022-11-29T08:42:10.319Z,7.05
2022-11-29T08:44:37.364Z,7.05
2022-11-29T08:47:22.899Z,7.04
2022-11-29T08:50:02.053Z,7.11
2022-11-29T08:52:54.568Z,7.23
2022-11-29T08:55:24.203Z,7.17
2022-11-29T08:57:52.139Z,7.11
2022-11-29T09:00:21.343Z,7.24
2022-11-29T09:02:48.724Z,7.15
2022-11-29T09:05:15.958Z,7.22
2022-11-29T09:07:43.482Z,7.20
2022-11-29T09:10:11.397Z,7.32
2022-11-29T09:12:40.290Z,7.33
2022-11-29T09:15:10.121Z,7.34
2022-11-29T09:17:37.737Z,7.38
2022-11-29T09:20:06.060Z,7.38
2022-11-29T09:22:32.941Z,7.40
2022-11-29T09:24:59.819Z,7.48
2022-11-29T09:27:26.683Z,7.49
2022-11-29T09:29:53.531Z,7.39
2022-11-29T09:32:20.382Z,7.34
2022-11-29T09:34:47.645Z,7.35
2022-11-29T09:37:14.691Z,7.37
2022-11-29T09:39:41.979Z,7.34
2022-11-29T09:42:47.050Z,7.43
2022-11-29T09:45:27.882Z,7.36
2022-11-29T09:48:00.764Z,7.39
2022-11-29T09:50:36.581Z,7.33
2022-11-29T09:53:43.673Z,7.31
2022-11-29T09:56:23.555Z,7.37
2022-11-29T09:59:00.677Z,7.49
2022-11-29T10:01:34.421Z,7.51
2022-11-29T10:04:04.801Z,7.50
2022-11-29T10:06:36.792Z,7.54
2022-11-29T10:09:18.988Z,7.50
2022-11-29T10:12:14.307Z,7.52
2022-11-29T10:14:58.168Z,7.62
2022-11-29T10:17:29.597Z,7.63
2022-11-29T10:20:04.034Z,7.68
2022-11-29T10:22:40.974Z,7.66
2022-11-29T10:25:12.297Z,7.67
2022-11-29T10:27:40.551Z,7.73
2022-11-29T10:30:14.868Z,7.84
2022-11-29T10:32:44.368Z,7.88
2022-11-29T10:35:17.368Z,7.92
2022-11-29T10:38:01.571Z,7.99
2022-11-29T10:40:35.167Z,7.99
2022-11-29T10:43:02.825Z,8.07
2022-11-29T10:45:35.183Z,7.99
2022-11-29T10:48:09.870Z,7.98
2022-11-29T10:50:37.898Z,7.94
2022-11-29T10:53:06.338Z,7.92
2022-11-29T10:56:06.368Z,7.85
2022-11-29T10:58:34.171Z,7.88
2022-11-29T11:01:07.048Z,7.86
2022-11-29T11:03:53.454Z,7.87
2022-11-29T11:06:25.217Z,7.83
2022-11-29T11:08:57.717Z,7.87
2022-11-29T11:11:33.941Z,7.89
2022-11-29T11:14:04.893Z,7.80
2022-11-29T11:16:37.027Z,7.88
2022-11-29T11:19:32.303Z,7.85
2022-11-29T11:22:04.396Z,7.79
2022-11-29T11:24:40.072Z,7.87
2022-11-29T11:27:07.186Z,7.93
2022-11-29T11:29:44.640Z,7.97
2022-11-29T11:32:19.677Z,7.87
2022-11-29T11:34:54.910Z,7.81
2022-11-29T11:37:23.466Z,7.89
2022-11-29T11:39:53.909Z,7.80
2022-11-29T11:42:39.425Z,7.84
2022-11-29T11:45:37.189Z,7.91
2022-11-29T11:48:13.410Z,7.92
2022-11-29T11:50:45.647Z,7.92
2022-11-29T11:53:44.328Z,7.95
2022-11-29T11:56:13.722Z,7.88
2022-11-29T11:58:43.312Z,7.81
2022-11-29T12:01:13.115Z,7.75
2022-11-29T12:03:48.304Z,7.74
2022-11-29T12:06:41.493Z,7.82
2022-11-29T12:09:08.565Z,7.84
2022-11-29T12:11:50.656Z,7.93
2022-11-29T12:14:29.148Z,7.91
2022-11-29T12:17:05.315Z,7.82
2022-11-29T12:19:42.053Z,7.81
2022-11-29T12:22:19.083Z,7.83
2022-11-29T12:24:57.387Z,7.76
2022-11-29T12:27:24.212Z,7.78
2022-11-29T12:29:51.193Z,7.82
2022-11-29T12:32:32.720Z,7.86
2022-11-29T12:35:47.809Z,7.83
2022-11-29T12:38:52.856Z,7.83
2022-11-29T12:41:34.794Z,7.92
2022-11-29T12:44:39.929Z,7.98
2022-11-29T12:47:34.796Z,7.89
2022-11-29T12:50:14.602Z,7.91
2022-11-29T12:52:41.411Z,7.87
2022-11-29T12:55:29.653Z,7.79
2022-11-29T12:58:12.174Z,7.80
2022-11-29T13:00:55.805Z,7.84
2022-11-29T13:03:49.634Z,7.79
2022-11-29T13:06:33.224Z,7.81
2022-11-29T13:09:08.938Z,7.84
2022-11-29T13:11:40.516Z,7.87
2022-11-29T13:14:43.349Z,7.88
2022-11-29T13:17:26.263Z,7.84
2022-11-29T13:19:56.921Z,7.74
2022-11-29T13:22:43.764Z,7.79
2022-11-29T13:25:27.191Z,7.84
2022-11-29T13:28:01.897Z,7.85
2022-11-29T13:30:29.234Z,7.80
2022-11-29T13:33:03.165Z,7.75
2022-11-29T13:35:43.215Z,7.76
2022-11-29T13:38:43.826Z,7.67
2022-11-29T13:41:37.784Z,7.73
2022-11-29T13:44:32.334Z,7.77
2022-11-29T13:47:10.084Z,7.85
2022-11-29T13:49:53.026Z,7.83
2022-11-29T13:52:35.162Z,7.72
2022-11-29T13:55:23.083Z,7.74
2022-11-29T14:00:42.552Z,7.67
2022-11-29T14:03:19.289Z,7.58
2022-11-29T14:05:52.273Z,7.65
2022-11-29T14:09:17.729Z,7.76
2022-11-29T14:12:00.300Z,7.68
2022-11-29T14:14:34.137Z,7.70
2022-11-29T14:17:06.968Z,7.71
2022-11-29T14:19:36.445Z,7.73
2022-11-29T14:22:03.324Z,7.66
2022-11-29T14:24:33.555Z,7.63
2022-11-29T14:27:06.150Z,7.72
2022-11-29T14:29:52.851Z,7.64
2022-11-29T14:32:31.833Z,7.56
2022-11-29T14:35:10.856Z,7.55
2022-11-29T14:37:58.180Z,7.57
2022-11-29T14:40:36.927Z,7.56
2022-11-29T14:43:16.516Z,7.57
2022-11-29T14:45:43.661Z,7.51
2022-11-29T14:48:31.962Z,7.49
2022-11-29T14:51:14.614Z,7.46
2022-11-29T14:53:43.583Z,7.57
2022-11-29T14:56:29.576Z,7.68
2022-11-29T14:59:33.710Z,7.62
2022-11-29T15:02:06.591Z,7.54
2022-11-29T15:04:35.650Z,7.42
2022-11-29T15:07:04.588Z,7.49
2022-11-29T15:09:33.540Z,7.36
2022-11-29T15:12:10.915Z,7.31
2022-11-29T15:14:40.481Z,7.35
2022-11-29T15:17:13.915Z,7.36
2022-11-29T15:20:25.605Z,7.33
2022-11-29T15:22:55.649Z,7.42
2022-11-29T15:25:26.450Z,7.49
2022-11-29T15:28:05.956Z,7.56
2022-11-29T15:30:39.247Z,7.51
2022-11-29T15:33:23.444Z,7.49
2022-11-29T15:36:04.225Z,7.58
2022-11-29T15:38:43.109Z,7.53
2022-11-29T15:41:22.341Z,7.55
2022-11-29T15:43:56.217Z,7.53
2022-11-29T15:46:28.688Z,7.48
2022-11-29T15:48:56.572Z,7.46
2022-11-29T15:51:31.234Z,7.46
2022-11-29T15:54:12.040Z,7.49
2022-11-29T15:56:53.762Z,7.52
2022-11-29T15:59:40.387Z,7.51
2022-11-29T16:02:32.596Z,7.44
2022-11-29T16:05:15.199Z,7.40
2022-11-29T16:07:44.169Z,7.35
2022-11-29T16:10:14.873Z,7.36
2022-11-29T16:12:55.325Z,7.40
2022-11-29T16:15:39.210Z,7.42
2022-11-29T16:18:14.914Z,7.38
2022-11-29T16:20:41.946Z,7.46
2022-11-29T16:23:11.613Z,7.38
2022-11-29T16:25:58.779Z,7.40
2022-11-29T16:28:30.133Z,7.40
2022-11-29T16:30:57.766Z,7.44
2022-11-29T16:33:25.087Z,7.46
2022-11-29T16:36:03.798Z,7.48
2022-11-29T16:38:30.821Z,7.45
2022-11-29T16:41:22.352Z,7.44
2022-11-29T16:43:56.232Z,7.39
2022-11-29T16:46:25.301Z,7.39
2022-11-29T16:48:54.143Z,7.34
2022-11-29T16:51:26.635Z,7.42
2022-11-29T16:53:55.857Z,7.40
2022-11-29T16:56:29.142Z,7.44
2022-11-29T16:59:20.845Z,7.33
2022-11-29T17:01:48.103Z,7.34
2022-11-29T17:04:23.747Z,7.32
2022-11-29T17:06:56.142Z,7.27
2022-11-29T17:09:26.801Z,7.23
2022-11-29T17:11:55.088Z,7.20
2022-11-29T17:14:22.347Z,7.17
2022-11-29T17:16:49.946Z,7.18
2022-11-29T17:19:17.759Z,7.17
2022-11-29T17:21:45.613Z,7.18
2022-11-29T17:24:15.769Z,7.25
2022-11-29T17:26:43.732Z,7.24
2022-11-29T17:29:12.097Z,7.22
2022-11-29T17:31:39.512Z,7.26
2022-11-29T17:34:06.614Z,7.30
2022-11-29T17:36:33.529Z,7.31
2022-11-29T17:39:01.539Z,7.22
2022-11-29T17:41:29.138Z,7.16
2022-11-29T17:43:57.030Z,7.16
2022-11-29T17:46:36.137Z,7.25
2022-11-29T17:49:06.419Z,7.29
2022-11-29T17:51:52.085Z,7.31
2022-11-29T17:54:19.471Z,7.31
2022-11-29T17:56:46.400Z,7.30
2022-11-29T17:59:13.195Z,7.25
2022-11-29T18:01:40.185Z,7.19
2022-11-29T18:04:08.464Z,7.21
2022-11-29T18:06:40.489Z,7.31
2022-11-29T18:09:09.340Z,7.29
2022-11-29T18:11:49.919Z,7.27
2022-11-29T18:14:23.712Z,7.28
2022-11-29T18:16:51.466Z,7.29
2022-11-29T18:19:20.970Z,7.37
2022-11-29T18:21:49.135Z,7.33
2022-11-29T18:24:15.973Z,7.25
2022-11-29T18:26:43.870Z,7.29
2022-11-29T18:29:11.252Z,7.30
2022-11-29T18:31:41.073Z,7.38
2022-11-29T18:34:10.467Z,7.29
2022-11-29T18:36:46.285Z,7.29
2022-11-29T18:39:18.131Z,7.27
2022-11-29T18:41:48.284Z,7.18
2022-11-29T18:44:17.562Z,7.29
2022-11-29T18:46:46.050Z,7.35
2022-11-29T18:49:15.194Z,7.28
2022-11-29T18:51:44.752Z,7.35
2022-11-29T18:54:12.357Z,7.33
2022-11-29T18:56:39.697Z,7.27
2022-11-29T18:59:10.526Z,7.29
2022-11-29T19:01:43.125Z,7.31
2022-11-29T19:04:13.118Z,7.38
2022-11-29T19:06:40.614Z,7.35
2022-11-29T19:09:11.575Z,7.27
2022-11-29T19:11:39.064Z,7.30
2022-11-29T19:14:11.828Z,7.32
2022-11-29T19:16:41.928Z,7.33
2022-11-29T19:19:08.926Z,7.31
2022-11-29T19:21:35.923Z,7.33
2022-11-29T19:24:05.677Z,7.37
2022-11-29T19:26:34.851Z,7.45
2022-11-29T19:29:02.154Z,7.47
2022-11-29T19:31:29.347Z,7.44
2022-11-29T19:33:57.570Z,7.48
2022-11-29T19:36:25.784Z,7.50
2022-11-29T19:38:54.312Z,7.43
2022-11-29T19:41:27.194Z,7.40
2022-11-29T19:43:57.083Z,7.44
2022-11-29T19:46:29.366Z,7.41
2022-11-29T19:48:57.817Z,7.43
2022-11-29T19:51:26.415Z,7.42
2022-11-29T19:54:01.110Z,7.47
2022-11-29T19:56:29.316Z,7.55
2022-11-29T19:58:56.392Z,7.59
2022-11-29T20:01:28.030Z,7.64
2022-11-29T20:03:59.044Z,7.61
2022-11-29T20:06:30.380Z,7.49
2022-11-29T20:08:58.003Z,7.52
2022-11-29T20:11:25.991Z,7.57
2022-11-29T20:13:58.443Z,7.68
2022-11-29T20:16:27.656Z,7.66
2022-11-29T20:18:54.901Z,7.65
2022-11-29T20:21:25.252Z,7.59
2022-11-29T20:23:57.467Z,7.62
2022-11-29T20:26:25.301Z,7.60
2022-11-29T20:28:52.416Z,7.57
2022-11-29T20:31:22.633Z,7.55
2022-11-29T20:33:51.687Z,7.55
2022-11-29T20:36:32.961Z,7.60
2022-11-29T20:39:25.429Z,7.70
2022-11-29T20:42:12.097Z,7.80
2022-11-29T20:44:44.426Z,7.93
2022-11-29T20:47:17.976Z,8.00
2022-11-29T20:49:45.423Z,7.98
2022-11-29T20:52:43.080Z,8.13
2022-11-29T20:55:10.156Z,8.18
2022-11-29T20:57:39.987Z,8.11
2022-11-29T21:00:09.398Z,8.25
2022-11-29T21:02:36.269Z,8.12
2022-11-29T21:05:04.025Z,8.11
2022-11-29T21:07:31.015Z,8.00
2022-11-29T21:10:01.180Z,8.01
2022-11-29T21:12:30.091Z,7.94
2022-11-29T21:14:57.857Z,7.92
2022-11-29T21:17:30.279Z,8.06
2022-11-29T21:20:03.159Z,8.13
2022-11-29T21:22:46.908Z,8.04
2022-11-29T21:25:23.377Z,8.03
2022-11-29T21:27:51.839Z,7.99
2022-11-29T21:30:24.093Z,7.93
2022-11-29T21:32:51.577Z,7.97
2022-11-29T21:35:18.507Z,7.99
2022-11-29T21:37:46.291Z,8.01
2022-11-29T21:40:15.856Z,7.94
2022-11-29T21:42:42.840Z,7.95
2022-11-29T21:45:15.222Z,7.93
2022-11-29T21:47:44.200Z,8.10
2022-11-29T21:50:12.658Z,8.09
2022-11-29T21:52:40.508Z,8.15
2022-11-29T21:55:07.762Z,8.29
2022-11-29T21:57:34.591Z,8.26
2022-11-29T22:00:01.452Z,8.29
2022-11-29T22:02:31.343Z,8.15
2022-11-29T22:04:58.413Z,8.17
2022-11-29T22:07:25.342Z,8.13
2022-11-29T22:09:52.568Z,8.13
2022-11-29T22:12:33.846Z,8.10
2022-11-29T22:15:01.803Z,8.05
2022-11-29T22:17:28.661Z,8.06
2022-11-29T22:19:55.623Z,8.05
2022-11-29T22:22:22.545Z,8.03
2022-11-29T22:24:49.646Z,8.01
2022-11-29T22:27:18.509Z,8.05
2022-11-29T22:29:45.566Z,8.08
2022-11-29T22:32:13.811Z,8.24
2022-11-29T22:34:40.731Z,8.25
2022-11-29T22:37:07.656Z,8.20
2022-11-29T22:39:34.592Z,8.26
2022-11-29T22:42:01.348Z,8.28
2022-11-29T22:44:28.212Z,8.19
2022-11-29T22:46:55.129Z,8.27
2022-11-29T22:49:22.048Z,8.38
2022-11-29T22:51:49.229Z,8.45
2022-11-29T22:54:16.584Z,8.45
2022-11-29T22:56:44.796Z,8.45
2022-11-29T22:59:11.771Z,8.40
2022-11-29T23:01:40.474Z,8.43
2022-11-29T23:04:10.572Z,8.40
2022-11-29T23:06:40.471Z,8.50
2022-11-29T23:09:21.327Z,8.30
2022-11-29T23:11:53.640Z,8.33
2022-11-29T23:14:22.339Z,8.31
2022-11-29T23:16:49.656Z,8.31
2022-11-29T23:19:17.353Z,8.46
2022-11-29T23:21:45.950Z,8.44
2022-11-29T23:24:14.385Z,8.29
2022-11-29T23:26:44.765Z,8.25
2022-11-29T23:29:19.380Z,8.20
2022-11-29T23:31:48.629Z,8.30
2022-11-29T23:34:15.693Z,8.16
2022-11-29T23:36:43.350Z,8.15
2022-11-29T23:39:12.728Z,8.15
2022-11-29T23:41:39.531Z,8.07
2022-11-29T23:44:08.711Z,8.09
2022-11-29T23:46:35.997Z,8.08
2022-11-29T23:49:02.950Z,8.20
2022-11-29T23:51:29.892Z,8.26
2022-11-29T23:53:56.689Z,8.29
2022-11-29T23:56:23.715Z,8.22
2022-11-29T23:58:50.621Z,8.35
